• Join FlightAware (Why Join?)
  • Login
  • US Flag 
04:09PM EDT


 

Airport Tracker/Info


-or-


 

Live Flight TrackerFlight Track Log ✈ UAL4202 ✈ 14-Apr-2013 ✈ KSTL - KEWR

Flight Track Log - Related Links

Times and Time Zones

All times are in EDT time to prevent confusion due to time zone crossing. See the UAL4202 flight status page for this flight to view local times or setup timezone preferences in your user account.

Time Position Orientation Groundspeed Altitude Reporting Facility
EDT Latitude Longitude Course Direction KTS MPH feet Rate Location/Type
08:39PM 38.7286 -90.2519 99° East 167 192 2,200  Level FAA TRACON SMA TRACON (SMA)
08:39PM 38.7264 -90.2306 98° East 186 214 2,600 1,320 Climbing FAA TRACON SMA TRACON (SMA)
08:40PM 38.7250 -90.2075 94° East 208 239 3,100 1,620 Climbing FAA TRACON SMA TRACON (SMA)
08:40PM 38.7258 -90.1742 88° East 238 274 3,700 1,920 Climbing FAA TRACON SMA TRACON (SMA)
08:40PM 38.7281 -90.1461 84° East 254 292 4,400 2,220 Climbing FAA TRACON SMA TRACON (SMA)
08:41PM 38.7306 -90.1172 84° East 264 304 5,200 2,580 Climbing FAA TRACON SMA TRACON (SMA)
08:41PM 38.7339 -90.0806 83° East 270 311 6,100 2,400 Climbing FAA TRACON SMA TRACON (SMA)
08:41PM 38.7364 -90.0508 84° East 273 314 6,800 1,860 Climbing FAA TRACON SMA TRACON (SMA)
08:42PM 38.7386 -90.0203 85° East 279 321 7,400 1,980 Climbing FAA TRACON SMA TRACON (SMA)
08:42PM 38.7428 -89.9806 82° East 289 333 8,100 2,100 Climbing FAA TRACON SMA TRACON (SMA)
08:42PM 38.7450 -89.9486 85° East 296 341 8,800 1,740 Climbing FAA TRACON SMA TRACON (SMA)
08:43PM 38.7481 -89.9150 83° East 303 349 9,300 1,800 Climbing FAA TRACON SMA TRACON (SMA)
08:43PM 38.7519 -89.8722 83° East 314 361 10,000 1,500 Climbing FAA TRACON SMA TRACON (SMA)
08:43PM 38.7550 -89.8367 84° East 323 372 10,300 720 Climbing FAA TRACON SMA TRACON (SMA)
08:44PM 38.7578 -89.7992 85° East 338 389 10,500 720 Climbing FAA TRACON SMA TRACON (SMA)
08:44PM 38.7619 -89.7500 84° East 358 412 10,800 1,020 Climbing FAA TRACON SMA TRACON (SMA)
08:44PM 38.7656 -89.7094 83° East 369 425 11,200 1,200 Climbing FAA TRACON SMA TRACON (SMA)
08:45PM 38.7694 -89.6681 83° East 378 435 11,600 1,200 Climbing FAA TRACON SMA TRACON (SMA)
08:45PM 38.7750 -89.6156 82° East 385 443 12,000 1,320 Climbing FAA TRACON SMA TRACON (SMA)
08:45PM 38.7778 -89.5736 85° East 387 445 12,500 1,320 Climbing FAA TRACON SMA TRACON (SMA)
08:46PM 38.7814 -89.5311 84° East 389 448 12,900 1,320 Climbing FAA TRACON SMA TRACON (SMA)
08:46PM 38.7861 -89.4775 84° East 391 450 13,400 1,500 Climbing FAA TRACON SMA TRACON (SMA)
08:46PM 38.7942 -89.4242 79° East 396 456 14,000 1,500 Climbing FAA TRACON SMA TRACON (SMA)
08:47PM 38.8000 -89.3819 80° East 392 451 14,500 1,440 Climbing FAA TRACON SMA TRACON (SMA)
08:47PM 38.8061 -89.3392 80° East 393 452 14,900 1,440 Climbing FAA TRACON SMA TRACON (SMA)
08:47PM 38.8125 -89.2969 79° East 394 453 15,400 1,320 Climbing FAA TRACON SMA TRACON (SMA)
08:48PM 38.8164 -89.2542 83° East 392 451 15,800 1,200 Climbing FAA TRACON SMA TRACON (SMA)
08:48PM 38.8233 -89.2119 78° East 392 451 16,200 1,320 Climbing FAA TRACON SMA TRACON (SMA)
08:48PM 38.8300 -89.1586 81° East 394 453 16,700 1,200 Climbing FAA TRACON SMA TRACON (SMA)
08:49PM 38.8361 -89.1156 80° East 398 458 17,000 900 Climbing FAA TRACON SMA TRACON (SMA)
08:49PM 38.8411 -89.0717 82° East 402 463 17,300 840 Climbing FAA TRACON SMA TRACON (SMA)
08:49PM 38.8500 -89.0550 56° Northeast 404 465 17,800 1,020 Climbing Kansas City Center
08:50PM 38.8683 -88.9144 80° East 408 470 19,000 1,080 Climbing Kansas City Center
08:51PM 38.8886 -88.7647 80° East 421 484 20,000 1,080 Climbing Kansas City Center
08:52PM 38.9089 -88.5969 81° East 428 493 21,200 1,200 Climbing Kansas City Center
08:54PM 38.9297 -88.4453 80° East 429 494 22,500 1,140 Climbing Kansas City Center
08:54PM 38.9625 -88.3308 70° East 427 491 23,400 1,200 Climbing Indianapolis Center
08:55PM 39.0028 -88.1864 70° East 427 491 24,700 1,260 Climbing Indianapolis Center
08:56PM 39.0428 -88.0431 70° East 425 489 26,100 1,140 Climbing Indianapolis Center
08:57PM 39.0822 -87.9022 70° East 420 483 27,100 960 Climbing Indianapolis Center
08:58PM 39.1214 -87.7586 71° East 420 483 28,100 1,020 Climbing Indianapolis Center
08:59PM 39.1600 -87.6161 71° East 420 483 29,300 1,260 Climbing Indianapolis Center
09:00PM 39.2067 -87.4461 70° East 417 480 30,700 1,320 Climbing Indianapolis Center
09:02PM 39.2453 -87.3031 71° East 418 481 32,100 1,260 Climbing Indianapolis Center
09:03PM 39.2836 -87.1608 71° East 417 480 33,400 1,140 Climbing Indianapolis Center
09:04PM 39.3211 -87.0203 71° East 413 475 34,500 900 Climbing Indianapolis Center
09:05PM 39.3589 -86.8775 71° East 416 479 35,300 780 Climbing Indianapolis Center
09:06PM 39.3978 -86.7325 71° East 423 487 36,100 720 Climbing Indianapolis Center
09:07PM 39.4356 -86.5861 71° East 426 490 36,800 420 Climbing Indianapolis Center
09:08PM 39.4753 -86.4381 71° East 431 496 37,000 60 Climbing Indianapolis Center
09:09PM 39.5150 -86.2819 72° East 450 518 37,000  Level Indianapolis Center
09:10PM 39.5572 -86.1194 71° East 469 540 37,000  Level Indianapolis Center
09:11PM 39.6000 -85.9503 72° East 488 562 37,000  Level Indianapolis Center
09:12PM 39.6483 -85.7817 70° East 493 567 37,000  Level Indianapolis Center
09:13PM 39.7111 -85.6114 64° Northeast 492 566 37,000  Level Indianapolis Center
09:14PM 39.7725 -85.4522 63° Northeast 489 563 37,000  Level Indianapolis Center
09:15PM 39.8325 -85.2908 64° Northeast 490 564 37,000  Level Indianapolis Center
09:16PM 39.8931 -85.1303 64° Northeast 491 565 37,000  Level Indianapolis Center
09:17PM 39.9536 -84.9653 64° Northeast 498 573 37,000  Level Indianapolis Center
09:18PM 40.0153 -84.7986 64° Northeast 505 581 37,000  Level Indianapolis Center
09:19PM 40.0764 -84.6300 65° Northeast 509 586 37,000  Level Indianapolis Center
09:20PM 40.1497 -84.4319 64° Northeast 513 590 37,000  Level Indianapolis Center
09:21PM 40.2092 -84.2617 65° Northeast 509 586 37,000  Level Indianapolis Center
09:22PM 40.2711 -84.0900 65° Northeast 514 592 37,000  Level Indianapolis Center
09:23PM 40.3431 -83.9228 61° Northeast 517 595 37,000  Level Indianapolis Center
09:24PM 40.4194 -83.7581 59° Northeast 520 598 37,000  Level Indianapolis Center
09:25PM 40.4714 -83.5775 69° East 521 600 37,000  Level Indianapolis Center
09:26PM 40.5117 -83.3917 74° East 522 601 37,000  Level Indianapolis Center
09:27PM 40.5492 -83.2050 75° East 521 600 37,000  Level Indianapolis Center
09:28PM 40.5889 -83.0206 74° East 525 604 37,000  Level Indianapolis Center
09:29PM 40.6269 -82.8347 75° East 525 604 37,000  Level Indianapolis Center
09:30PM 40.6650 -82.6481 75° East 524 603 37,000  Level Indianapolis Center
09:31PM 40.7089 -82.4264 75° East 517 595 37,000  Level Cleveland Center
09:32PM 40.7472 -82.2386 75° East 512 589 37,000  Level Cleveland Center
09:33PM 40.7831 -82.0556 75° East 512 589 37,000  Level Cleveland Center
09:34PM 40.8208 -81.8672 75° East 520 598 37,000  Level Cleveland Center
09:35PM 40.8583 -81.6783 75° East 528 608 37,000  Level Cleveland Center
09:36PM 40.8933 -81.4867 76° East 528 608 37,000  Level Cleveland Center
09:37PM 40.9322 -81.2978 75° East 528 608 37,000  Level Cleveland Center
09:38PM 40.9664 -81.1056 77° East 528 608 37,000  Level Cleveland Center
09:39PM 41.0047 -80.9133 75° East 528 608 37,000  Level Cleveland Center
09:40PM 41.0406 -80.7208 76° East 528 608 37,000  Level Cleveland Center
09:41PM 41.0781 -80.5253 76° East 528 608 37,000  Level Cleveland Center
09:42PM 41.1114 -80.3322 77° East 528 608 37,000  Level Cleveland Center
09:43PM 41.1461 -80.1336 77° East 528 608 37,000  Level Cleveland Center
09:44PM 41.1786 -79.9625 76° East 533 613 37,000  Level Cleveland Center
09:45PM 41.2128 -79.7661 77° East 533 613 37,000  Level Cleveland Center
09:46PM 41.2489 -79.5669 76° East 539 620 37,000  Level Cleveland Center
09:47PM 41.2822 -79.3672 77° East 545 627 37,000  Level Cleveland Center
09:48PM 41.3156 -79.1678 77° East 545 627 37,000  Level Cleveland Center
09:49PM 41.3503 -78.9706 77° East 545 627 37,000  Level Cleveland Center
09:50PM 41.3828 -78.7706 78° East 550 633 37,000  Level Cleveland Center
09:52PM 41.3800 -78.3750 90° East 540 621 37,000  Level New York Center
09:53PM 41.3769 -78.1589 91° East 540 621 37,000  Level New York Center
09:54PM 41.3706 -77.9592 92° East 540 621 37,000  Level New York Center
09:55PM 41.3678 -77.7597 91° East 540 621 37,000 -360 Level New York Center
09:56PM 41.3625 -77.5628 92° East 540 621 36,300 -1,200 Descending New York Center
09:57PM 41.3547 -77.3686 93° East 535 616 34,700 -1,800 Descending New York Center
09:58PM 41.3250 -77.1914 103° East 495 570 32,700 -2,040 Descending New York Center
09:59PM 41.2489 -77.0517 126° Southeast 463 533 30,600 -2,100 Descending New York Center
10:00PM 41.2119 -76.8828 106° East 463 533 28,600 -1,800 Descending New York Center
10:01PM 41.1992 -76.7244 96° East 458 527 27,100 -1,740 Descending New York Center
10:02PM 41.1861 -76.5661 96° East 436 502 25,200 -2,100 Descending New York Center
10:03PM 41.1728 -76.4106 96° East 431 496 22,900 -2,220 Descending New York Center
10:04PM 41.1592 -76.2606 97° East 419 482 20,800 -2,100 Descending New York Center
10:05PM 41.1492 -76.1167 95° East 405 466 18,600 -1,500 Descending New York Center
10:06PM 41.1275 -75.9936 103° East 383 441 17,900 -1,320 Descending New York Center
10:07PM 41.0881 -75.8475 110° East 378 435 16,100 -1,920 Descending New York Center
10:08PM 41.0536 -75.7211 110° East 372 428 14,100 -1,560 Descending New York Center
10:09PM 41.0192 -75.6003 111° Southeast 358 412 13,000 -960 Descending New York Center
10:10PM 40.9864 -75.4853 111° Southeast 349 402 12,200 -1,200 Descending New York Center
10:11PM 40.9572 -75.3789 110° East 344 396 10,700 -1,440 Descending New York Center
10:12PM 40.9242 -75.2639 111° Southeast 339 390 9,300 -1,380 Descending New York Center
10:13PM 40.8889 -75.1436 111° Southeast 329 379 8,000 -1,140 Descending New York Center
10:14PM 40.8594 -75.0375 110° East 318 366 7,100 -540 Descending New York Center
10:15PM 40.8319 -74.9314 109° East 313 360 7,000 -420 Descending New York Center
10:16PM 40.7875 -74.8356 121° Southeast 305 351 6,300 -840 Descending New York Center
10:17PM 40.7506 -74.7567 122° Southeast 288 331 5,400 -660 Descending New York Center
10:18PM 40.7058 -74.6639 122° Southeast 278 320 5,000 -180 Descending New York Center
10:19PM 40.6667 -74.5833 123° Southeast 273 314 5,100  Climbing New York TRACON
10:20PM 40.6167 -74.5167 135° Southeast 243 280 5,100 -360 Level New York TRACON
10:21PM 40.5833 -74.4833 143° Southeast 233 268 4,500 -720 Descending New York TRACON
10:22PM 40.5333 -74.4333 143° Southeast 201 231 3,800 -720 Descending New York TRACON
10:23PM 40.4833 -74.4000 153° Southeast 182 209 3,100 -360 Descending New York TRACON
10:24PM 40.4667 -74.3333 108° East 197 227 3,100  Level New York TRACON
10:25PM 40.5000 -74.2833 49° Northeast 189 217 3,100 -60 Level New York TRACON
10:26PM 40.5500 -74.2500 27° Northeast 190 219 3,000 -540 Descending New York TRACON
10:27PM 40.6000 -74.2167 27° Northeast 186 214 2,000 -960 Descending New York TRACON
10:28PM 40.6333 -74.2000 21° North 134 154 1,100 -900 Descending New York TRACON
10:29PM 40.6667 -74.1833 21° North 121 139 400 -720 Descending New York TRACON